createdAt,value
2023-02-06T00:03:51.092Z,-4.92
2023-02-06T00:13:57.467Z,-4.97
2023-02-06T00:24:05.033Z,-5.14
2023-02-06T00:34:11.326Z,-5.64
2023-02-06T00:44:17.684Z,-5.60
2023-02-06T00:54:24.038Z,-5.85
2023-02-06T01:04:29.276Z,-5.65
2023-02-06T01:14:35.712Z,-5.41
2023-02-06T01:24:41.988Z,-5.58
2023-02-06T01:34:48.261Z,-5.44
2023-02-06T01:45:22.525Z,-5.56
2023-02-06T01:55:29.076Z,-5.41
2023-02-06T02:05:36.090Z,-5.08
2023-02-06T02:15:42.569Z,-5.35
2023-02-06T02:26:07.420Z,-5.36
2023-02-06T02:36:35.746Z,-5.65
2023-02-06T02:46:44.968Z,-5.43
2023-02-06T02:56:51.753Z,-5.29
2023-02-06T03:07:08.684Z,-5.41
2023-02-06T03:17:17.612Z,-5.47
2023-02-06T03:27:24.075Z,-5.72
2023-02-06T03:37:30.906Z,-5.55
2023-02-06T03:47:38.030Z,-6.03
2023-02-06T03:57:46.720Z,-5.97
2023-02-06T04:07:55.051Z,-6.31
2023-02-06T04:18:02.020Z,-5.96
2023-02-06T04:28:08.741Z,-6.15
2023-02-06T04:38:15.092Z,-6.15
2023-02-06T04:48:21.444Z,-6.07
2023-02-06T04:58:27.790Z,-6.25
2023-02-06T05:08:34.110Z,-6.36
2023-02-06T05:18:41.124Z,-6.26
2023-02-06T05:28:47.964Z,-6.67
2023-02-06T05:38:54.544Z,-6.77
2023-02-06T05:49:00.854Z,-6.49
2023-02-06T05:59:07.653Z,-6.06
2023-02-06T06:09:13.955Z,-5.77
2023-02-06T06:19:20.370Z,-5.55
2023-02-06T06:29:27.267Z,-5.63
2023-02-06T06:39:33.551Z,-5.47
2023-02-06T06:49:40.203Z,-5.13
2023-02-06T06:59:46.525Z,-4.89
2023-02-06T07:09:52.770Z,-4.63
2023-02-06T07:19:59.159Z,-4.12
2023-02-06T07:30:06.659Z,-3.94
2023-02-06T07:40:13.714Z,-3.72
2023-02-06T07:50:20.095Z,-3.61
2023-02-06T08:00:26.425Z,-3.31
2023-02-06T08:10:33.369Z,-2.43
2023-02-06T08:20:39.704Z,-2.10
2023-02-06T08:30:46.224Z,-1.17
2023-02-06T08:40:52.582Z,-0.72
2023-02-06T08:51:06.421Z,0.97
2023-02-06T09:01:15.646Z,1.89
2023-02-06T09:11:23.908Z,0.65
2023-02-06T09:21:32.124Z,0.76
2023-02-06T09:31:40.500Z,0.68
2023-02-06T09:42:00.329Z,0.02
2023-02-06T09:52:33.336Z,2.67
2023-02-06T10:02:42.590Z,2.92
2023-02-06T10:13:00.956Z,1.64
2023-02-06T10:23:14.035Z,3.31
2023-02-06T10:33:26.008Z,2.33
2023-02-06T10:43:38.468Z,0.94
2023-02-06T10:53:59.275Z,0.21
2023-02-06T11:04:28.331Z,0.36
2023-02-06T11:14:38.779Z,1.90
2023-02-06T11:25:00.856Z,1.51
2023-02-06T11:35:40.803Z,2.47
2023-02-06T11:45:49.350Z,3.05
2023-02-06T11:56:18.245Z,2.54
2023-02-06T12:06:30.762Z,1.77
2023-02-06T12:16:39.824Z,1.23
2023-02-06T12:26:46.741Z,1.36
2023-02-06T12:37:12.536Z,1.67
2023-02-06T12:47:30.305Z,1.01
2023-02-06T12:57:38.303Z,0.45
2023-02-06T13:07:49.567Z,0.49
2023-02-06T13:17:56.945Z,-0.44
2023-02-06T13:28:23.552Z,-0.63
2023-02-06T13:38:38.206Z,0.03
2023-02-06T13:49:13.320Z,-0.04
2023-02-06T13:59:24.799Z,-0.02
2023-02-06T14:10:06.393Z,-0.12
2023-02-06T14:20:21.849Z,-0.50
2023-02-06T14:30:30.173Z,-0.65
2023-02-06T14:40:40.802Z,-0.46
2023-02-06T14:50:56.362Z,-0.67
2023-02-06T15:01:18.094Z,-1.12
2023-02-06T15:11:26.886Z,-1.28
2023-02-06T15:21:33.171Z,-1.49
2023-02-06T15:31:39.553Z,-1.77
2023-02-06T15:41:48.848Z,-1.88
2023-02-06T15:51:56.233Z,-1.94
2023-02-06T16:02:05.144Z,-2.31
2023-02-06T16:12:11.866Z,-2.48
2023-02-06T16:22:19.895Z,-2.55
2023-02-06T16:32:30.330Z,-2.62
2023-02-06T16:42:39.392Z,-3.00
2023-02-06T16:52:54.153Z,-3.15
2023-02-06T17:03:01.728Z,-3.65
2023-02-06T17:13:10.128Z,-3.80
2023-02-06T17:23:16.962Z,-3.86
2023-02-06T17:33:23.360Z,-4.14
2023-02-06T17:43:31.024Z,-4.14
2023-02-06T17:53:37.407Z,-4.41
2023-02-06T18:03:44.554Z,-4.61
2023-02-06T18:13:51.715Z,-5.23
2023-02-06T18:23:59.323Z,-5.09
2023-02-06T18:34:08.965Z,-4.97
2023-02-06T18:44:16.355Z,-5.06
2023-02-06T18:54:22.758Z,-5.73
2023-02-06T19:04:29.089Z,-5.69
2023-02-06T19:14:35.744Z,-5.82
2023-02-06T19:24:43.640Z,-5.88
2023-02-06T19:34:50.135Z,-6.18
2023-02-06T19:44:56.596Z,-6.50
2023-02-06T19:55:03.202Z,-6.43
2023-02-06T20:05:09.950Z,-6.20
2023-02-06T20:15:16.710Z,-6.71
2023-02-06T20:25:23.244Z,-6.65
2023-02-06T20:35:29.977Z,-6.80
2023-02-06T20:45:36.479Z,-7.01
2023-02-06T20:55:45.512Z,-6.76
2023-02-06T21:06:01.824Z,-6.64
2023-02-06T21:16:09.257Z,-6.39
2023-02-06T21:26:18.266Z,-6.58
2023-02-06T21:36:25.193Z,-6.94
2023-02-06T21:46:32.141Z,-6.60
2023-02-06T21:56:41.838Z,-6.92
2023-02-06T22:06:49.115Z,-6.63
2023-02-06T22:16:55.584Z,-6.63
2023-02-06T22:27:01.913Z,-6.71
2023-02-06T22:37:08.229Z,-6.58
2023-02-06T22:47:14.524Z,-7.23
2023-02-06T22:57:20.918Z,-7.43
2023-02-06T23:07:27.192Z,-7.84
2023-02-06T23:17:33.720Z,-7.75
2023-02-06T23:27:40.034Z,-7.83
2023-02-06T23:37:46.370Z,-7.71
2023-02-06T23:47:53.395Z,-8.04
2023-02-06T23:57:59.715Z,-8.23
